Time;durP1;ratioP1;P1;durP2;ratioP2;P2;SDS_P1;SDS_P2;PMS_P1;PMS_P2;Temp;Humidity;BMP_temperature;BMP_pressure;BME280_temperature;BME280_humidity;BME280_pressure;Samples;Min_cycle;Max_cycle;Signal;HPM_P1;HPM_P2
2022/10/19 00:02:24;;;;;;;6.87;3.47;;;11.90;99.90;;;;;;5103665;28;20419;-81
2022/10/19 00:04:51;;;;;;;8.47;3.60;;;12.00;99.90;;;;;;5103628;28;20459;-80
2022/10/19 00:07:19;;;;;;;8.33;3.63;;;12.00;99.90;;;;;;5100080;28;20439;-81
2022/10/19 00:09:46;;;;;;;9.07;4.00;;;12.20;99.90;;;;;;5099340;28;20487;-81
2022/10/19 00:12:12;;;;;;;9.33;4.80;;;12.30;99.90;;;;;;5099381;28;20458;-81
2022/10/19 00:14:39;;;;;;;6.40;3.47;;;11.70;99.90;;;;;;5099058;28;20877;-79
2022/10/19 00:17:06;;;;;;;3.50;3.20;;;12.50;99.90;;;;;;5105055;28;20444;-78
2022/10/19 00:19:32;;;;;;;10.20;4.23;;;12.20;99.90;;;;;;5107491;28;20459;-80
2022/10/19 00:21:59;;;;;;;7.23;4.03;;;12.20;99.90;;;;;;5106319;28;20425;-81
2022/10/19 00:24:27;;;;;;;10.70;5.10;;;11.80;99.90;;;;;;5104685;28;20429;-79
2022/10/19 00:26:54;;;;;;;7.40;3.90;;;11.80;99.90;;;;;;5105742;28;20439;-79
2022/10/19 00:29:20;;;;;;;4.60;2.90;;;12.20;99.90;;;;;;5103827;28;20517;-79
2022/10/19 00:31:49;;;;;;;5.77;3.27;;;12.10;99.90;;;;;;5102984;28;20444;-79
2022/10/19 00:34:16;;;;;;;5.20;3.00;;;12.50;99.90;;;;;;5104618;28;20439;-79
2022/10/19 00:36:43;;;;;;;5.33;3.33;;;12.30;99.90;;;;;;5103833;28;20942;-79
2022/10/19 00:39:12;;;;;;;7.90;3.70;;;11.80;99.90;;;;;;5101104;28;20464;-79
2022/10/19 00:41:41;;;;;;;4.30;3.37;;;12.00;99.90;;;;;;5101262;28;20418;-81
2022/10/19 00:44:46;;;;;;;5.57;3.20;;;11.90;99.90;;;;;;5100643;28;20436;-79
2022/10/19 00:47:15;;;;;;;3.57;3.07;;;12.10;99.90;;;;;;5099208;28;20857;-80
2022/10/19 00:49:45;;;;;;;4.33;3.00;;;11.80;99.90;;;;;;5101612;28;20479;-80
2022/10/19 00:52:15;;;;;;;7.70;3.27;;;12.20;99.90;;;;;;5099890;28;20448;-81
2022/10/19 00:54:44;;;;;;;5.20;3.23;;;12.20;99.90;;;;;;5099084;28;20443;-79
2022/10/19 00:57:11;;;;;;;5.33;2.77;;;12.10;99.90;;;;;;5099032;28;20913;-81
2022/10/19 00:59:39;;;;;;;4.43;2.70;;;12.00;99.90;;;;;;5098380;28;20450;-81
2022/10/19 01:02:06;;;;;;;3.93;2.63;;;12.30;99.90;;;;;;5099019;28;20428;-82
2022/10/19 01:04:37;;;;;;;5.93;3.00;;;12.40;99.90;;;;;;5099283;28;20460;-81
2022/10/19 01:07:05;;;;;;;7.57;3.57;;;11.90;99.90;;;;;;5104137;28;20428;-79
2022/10/19 01:09:32;;;;;;;4.53;2.57;;;11.60;99.90;;;;;;5102787;28;20464;-79
2022/10/19 01:12:07;;;;;;;6.00;2.97;;;12.00;99.90;;;;;;5106452;28;20440;-78
2022/10/19 01:14:46;;;;;;;14.30;4.00;;;11.90;99.90;;;;;;5105816;28;20442;-81
2022/10/19 01:17:22;;;;;;;4.90;3.00;;;12.30;99.90;;;;;;5101482;28;20428;-80
2022/10/19 01:20:08;;;;;;;3.00;2.70;;;11.90;99.90;;;;;;5100355;28;20463;-80
2022/10/19 01:22:54;;;;;;;3.60;2.83;;;12.20;99.90;;;;;;5100697;28;20432;-81
2022/10/19 01:25:24;;;;;;;8.63;3.10;;;12.20;99.90;;;;;;5098758;28;20436;-81
2022/10/19 01:28:03;;;;;;;4.67;2.87;;;12.30;99.90;;;;;;5099693;28;20808;-80
2022/10/19 01:30:41;;;;;;;6.30;3.73;;;12.10;99.90;;;;;;5098177;28;20833;-81
2022/10/19 01:33:31;;;;;;;3.00;2.13;;;12.20;99.90;;;;;;5098822;28;20439;-81
2022/10/19 01:36:06;;;;;;;3.53;2.23;;;11.90;99.90;;;;;;5098434;28;20428;-80
2022/10/19 01:38:37;;;;;;;4.13;2.67;;;11.90;99.90;;;;;;5098572;28;20440;-79
2022/10/19 01:41:12;;;;;;;6.03;3.10;;;12.00;99.90;;;;;;5097728;28;20456;-81
2022/10/19 01:43:44;;;;;;;5.77;2.50;;;12.00;99.90;;;;;;5097375;28;20548;-80
2022/10/19 01:46:17;;;;;;;6.57;2.60;;;12.40;99.90;;;;;;5097846;28;20457;-81
2022/10/19 01:48:50;;;;;;;4.17;2.53;;;12.20;99.90;;;;;;5098235;28;20798;-80
2022/10/19 01:51:20;;;;;;;6.13;3.00;;;11.80;99.90;;;;;;5098313;28;20491;-79
2022/10/19 01:53:51;;;;;;;11.53;4.30;;;11.90;99.90;;;;;;5098017;28;20930;-79
2022/10/19 01:56:23;;;;;;;7.33;3.90;;;12.00;99.90;;;;;;5097901;28;20477;-80
2022/10/19 01:58:53;;;;;;;4.97;3.00;;;11.60;99.90;;;;;;5100619;28;20456;-79
2022/10/19 02:01:24;;;;;;;7.77;3.07;;;12.00;99.90;;;;;;5103506;28;20450;-81
2022/10/19 02:03:53;;;;;;;8.70;2.87;;;12.10;99.90;;;;;;5101190;28;20410;-81
2022/10/19 02:06:22;;;;;;;5.70;2.77;;;12.40;99.90;;;;;;5098535;28;20418;-81
2022/10/19 02:08:51;;;;;;;7.23;3.17;;;12.60;99.90;;;;;;5098348;28;20446;-80
2022/10/19 02:11:20;;;;;;;5.83;2.87;;;11.60;99.90;;;;;;5097892;28;20461;-80
2022/10/19 02:13:49;;;;;;;5.00;2.20;;;11.90;99.90;;;;;;5098197;28;20504;-81
2022/10/19 02:16:24;;;;;;;6.47;2.10;;;11.80;99.90;;;;;;5098074;28;20447;-81
2022/10/19 02:18:53;;;;;;;6.73;3.60;;;11.90;99.90;;;;;;5097563;28;20791;-79
2022/10/19 02:21:20;;;;;;;4.63;2.57;;;11.90;99.90;;;;;;5098981;28;20419;-79
2022/10/19 02:23:47;;;;;;;6.00;2.70;;;12.40;99.90;;;;;;5113829;28;20449;-79
2022/10/19 02:26:14;;;;;;;4.83;2.70;;;11.60;99.90;;;;;;5115913;28;20436;-80
2022/10/19 02:28:40;;;;;;;4.90;3.10;;;11.60;99.90;;;;;;5107103;28;20489;-81
2022/10/19 02:31:07;;;;;;;9.00;3.70;;;12.40;99.90;;;;;;5098742;28;20476;-80
2022/10/19 02:33:36;;;;;;;4.33;2.50;;;12.70;99.90;;;;;;5097905;28;20795;-81
2022/10/19 02:36:03;;;;;;;16.00;3.20;;;12.20;99.90;;;;;;5097298;28;20444;-81
2022/10/19 02:38:30;;;;;;;5.63;2.27;;;11.60;99.90;;;;;;5096520;28;20455;-81
2022/10/19 02:41:04;;;;;;;2.83;2.63;;;11.40;99.90;;;;;;5096547;28;20460;-81
2022/10/19 02:43:33;;;;;;;9.97;3.83;;;11.80;99.90;;;;;;5097452;28;20428;-79
2022/10/19 02:46:02;;;;;;;4.37;2.50;;;12.30;99.90;;;;;;5097528;28;20440;-80
2022/10/19 02:48:31;;;;;;;2.50;2.30;;;11.90;99.90;;;;;;5096498;28;20897;-80
2022/10/19 02:50:59;;;;;;;6.53;2.63;;;11.80;99.90;;;;;;5096063;28;20533;-81
2022/10/19 02:53:26;;;;;;;12.70;2.50;;;11.70;99.90;;;;;;5096145;28;20493;-80
2022/10/19 02:55:53;;;;;;;12.10;3.83;;;;;;;;;;5096250;28;20427;-80
2022/10/19 02:58:20;;;;;;;8.00;3.20;;;12.10;99.90;;;;;;5096612;28;20832;-80
2022/10/19 03:00:46;;;;;;;9.50;2.17;;;11.80;99.90;;;;;;5094594;22;20993;-76
2022/10/19 03:03:13;;;;;;;3.40;2.43;;;12.40;99.90;;;;;;5073522;28;20444;-77
2022/10/19 03:05:40;;;;;;;4.13;2.30;;;12.30;99.90;;;;;;5075445;28;20467;-76
2022/10/19 03:08:08;;;;;;;3.97;2.10;;;12.20;99.90;;;;;;5081696;28;20441;-77
2022/10/19 03:10:34;;;;;;;9.03;3.30;;;11.10;99.90;;;;;;5076310;28;20953;-76
2022/10/19 03:13:01;;;;;;;8.47;2.30;;;11.70;99.90;;;;;;5073991;28;20423;-77
2022/10/19 03:15:28;;;;;;;3.83;2.30;;;11.70;99.90;;;;;;5073668;28;20423;-77
2022/10/19 03:17:56;;;;;;;4.03;2.07;;;11.80;99.90;;;;;;5076382;28;20444;-77
2022/10/19 03:20:23;;;;;;;8.93;2.40;;;11.90;99.90;;;;;;5077666;28;21044;-76
2022/10/19 03:22:50;;;;;;;2.63;2.27;;;12.20;99.90;;;;;;5077383;28;20462;-76
2022/10/19 03:25:18;;;;;;;4.70;2.13;;;12.10;99.90;;;;;;5077516;28;20958;-76
2022/10/19 03:27:45;;;;;;;3.40;2.07;;;12.20;99.90;;;;;;5077272;28;20463;-76
2022/10/19 03:30:11;;;;;;;3.63;2.13;;;12.20;99.90;;;;;;5077192;28;20464;-76
2022/10/19 03:32:38;;;;;;;7.73;2.50;;;11.80;99.90;;;;;;5077443;28;20419;-76
2022/10/19 03:35:06;;;;;;;5.67;2.40;;;11.90;99.90;;;;;;5077335;28;20570;-77
2022/10/19 03:37:32;;;;;;;6.87;2.60;;;12.10;99.90;;;;;;5077374;28;20444;-77
2022/10/19 03:39:59;;;;;;;4.63;2.27;;;11.60;99.90;;;;;;5077019;28;20498;-76
2022/10/19 03:42:27;;;;;;;2.03;1.83;;;12.20;99.90;;;;;;5077054;28;20441;-77
2022/10/19 03:44:54;;;;;;;6.40;2.50;;;12.20;99.90;;;;;;5076964;28;20452;-77
2022/10/19 03:47:20;;;;;;;3.63;1.70;;;12.10;99.90;;;;;;5076942;28;20489;-76
2022/10/19 03:49:49;;;;;;;4.37;1.90;;;12.10;99.90;;;;;;5076761;28;20468;-76
2022/10/19 03:52:16;;;;;;;2.57;1.60;;;11.50;99.90;;;;;;5076732;28;20465;-76
2022/10/19 03:54:42;;;;;;;2.13;1.90;;;12.10;99.90;;;;;;5076733;28;20456;-77
2022/10/19 03:57:09;;;;;;;4.70;1.93;;;11.90;99.90;;;;;;5077096;28;20811;-77
2022/10/19 03:59:37;;;;;;;1.63;1.50;;;11.50;99.90;;;;;;5076359;28;20455;-76
2022/10/19 04:02:04;;;;;;;2.23;1.87;;;;;;;;;;5077082;28;20436;-76
2022/10/19 04:04:31;;;;;;;6.63;2.43;;;12.30;99.90;;;;;;5076654;28;20426;-76
2022/10/19 04:06:58;;;;;;;6.63;2.40;;;12.00;99.90;;;;;;5076566;28;20422;-76
2022/10/19 04:09:25;;;;;;;5.00;2.00;;;11.50;99.90;;;;;;5076512;28;20809;-76
2022/10/19 04:11:51;;;;;;;2.33;1.93;;;11.60;99.90;;;;;;5076329;28;20480;-77
2022/10/19 04:14:22;;;;;;;10.10;2.10;;;11.80;99.90;;;;;;5076459;28;20883;-77
2022/10/19 04:16:50;;;;;;;4.60;1.70;;;11.50;99.90;;;;;;5076094;28;20408;-76
2022/10/19 04:19:17;;;;;;;4.43;2.90;;;;;;;;;;5075927;28;20427;-77
2022/10/19 04:21:44;;;;;;;3.70;1.60;;;11.70;99.90;;;;;;5076688;28;20445;-77
2022/10/19 04:24:13;;;;;;;4.60;1.37;;;12.30;99.90;;;;;;5076464;28;20441;-76
2022/10/19 04:26:42;;;;;;;2.73;1.50;;;11.90;99.90;;;;;;5076514;28;20426;-77
2022/10/19 04:29:10;;;;;;;5.33;1.63;;;11.90;99.90;;;;;;5076153;28;20404;-76
2022/10/19 04:31:37;;;;;;;1.77;1.50;;;11.80;99.90;;;;;;5076233;28;20484;-76
2022/10/19 04:34:05;;;;;;;4.70;1.60;;;11.80;99.90;;;;;;5076239;28;20427;-77
2022/10/19 04:36:32;;;;;;;1.70;1.30;;;11.90;99.90;;;;;;5076374;28;20419;-76
2022/10/19 04:38:59;;;;;;;5.77;1.23;;;11.80;99.90;;;;;;5078111;28;20456;-77
2022/10/19 04:41:26;;;;;;;2.17;1.40;;;;;;;;;;5081099;28;20422;-76
2022/10/19 04:43:57;;;;;;;2.90;1.50;;;11.80;99.90;;;;;;5078587;28;20445;-76
2022/10/19 04:46:24;;;;;;;3.97;1.57;;;11.80;99.90;;;;;;5076785;28;20972;-77
2022/10/19 04:48:51;;;;;;;1.83;1.37;;;11.60;99.90;;;;;;5077347;28;20464;-76
2022/10/19 04:51:20;;;;;;;2.57;1.27;;;12.00;99.90;;;;;;5076569;28;20534;-77
2022/10/19 04:53:46;;;;;;;2.03;1.80;;;12.00;99.90;;;;;;5075933;28;20826;-77
2022/10/19 04:56:16;;;;;;;1.23;1.13;;;12.00;99.90;;;;;;5075677;28;20448;-76
2022/10/19 04:58:43;;;;;;;4.93;1.37;;;11.60;99.90;;;;;;5075495;28;20435;-77
2022/10/19 05:01:12;;;;;;;4.30;1.60;;;12.20;99.90;;;;;;5075214;28;20870;-77
2022/10/19 05:03:39;;;;;;;1.37;1.23;;;11.80;99.90;;;;;;5075655;28;20866;-76
2022/10/19 05:06:07;;;;;;;1.80;1.17;;;12.20;99.90;;;;;;5075063;28;20460;-76
2022/10/19 05:08:36;;;;;;;5.00;1.80;;;12.30;99.90;;;;;;5075211;28;20446;-76
2022/10/19 05:11:03;;;;;;;2.10;1.33;;;11.70;99.90;;;;;;5074852;28;20463;-76
2022/10/19 05:13:31;;;;;;;1.73;1.10;;;12.30;99.90;;;;;;5075231;28;20453;-76
2022/10/19 05:15:59;;;;;;;2.60;1.23;;;11.90;99.90;;;;;;5075142;28;20423;-76
2022/10/19 05:18:26;;;;;;;2.50;1.23;;;11.90;99.90;;;;;;5075158;28;20448;-76
2022/10/19 05:21:00;;;;;;;1.60;1.50;;;11.60;99.90;;;;;;5074971;28;20465;-76
2022/10/19 05:23:27;;;;;;;4.90;1.90;;;12.30;99.90;;;;;;5076546;28;20481;-76
2022/10/19 05:26:01;;;;;;;1.77;1.27;;;11.80;99.90;;;;;;5075034;28;20478;-76
2022/10/19 05:28:27;;;;;;;7.30;1.10;;;12.10;99.90;;;;;;5074911;28;20425;-76
2022/10/19 05:30:54;;;;;;;1.83;1.50;;;12.30;99.90;;;;;;5074990;28;20439;-76
2022/10/19 05:33:21;;;;;;;1.73;0.97;;;12.50;99.90;;;;;;5075131;28;20420;-76
2022/10/19 05:35:47;;;;;;;1.53;1.20;;;11.70;99.90;;;;;;5074591;28;20423;-77
2022/10/19 05:38:14;;;;;;;5.20;1.10;;;12.20;99.90;;;;;;5074872;28;20518;-78
2022/10/19 05:40:45;;;;;;;2.70;1.43;;;11.70;99.90;;;;;;5074048;28;20959;-77
2022/10/19 05:43:13;;;;;;;3.27;1.57;;;11.50;99.90;;;;;;5074824;28;20512;-78
2022/10/19 05:45:39;;;;;;;4.50;1.63;;;11.50;99.90;;;;;;5074462;28;20778;-77
2022/10/19 05:48:06;;;;;;;4.57;1.67;;;11.00;99.90;;;;;;5074488;28;20448;-77
2022/10/19 05:50:33;;;;;;;14.40;1.80;;;11.70;99.90;;;;;;5074470;28;20447;-78
2022/10/19 05:53:00;;;;;;;2.30;1.70;;;10.90;99.90;;;;;;5074543;28;20476;-78
2022/10/19 05:55:26;;;;;;;2.90;1.77;;;10.80;99.90;;;;;;5074623;28;20419;-77
2022/10/19 05:57:53;;;;;;;3.43;1.70;;;10.80;99.90;;;;;;5074514;28;20420;-77
2022/10/19 06:00:21;;;;;;;4.77;1.60;;;11.20;99.90;;;;;;5073797;28;21029;-77
2022/10/19 06:02:48;;;;;;;3.23;1.67;;;11.00;99.90;;;;;;5074358;28;20839;-76
2022/10/19 06:05:14;;;;;;;4.73;1.67;;;11.20;99.90;;;;;;5074229;28;20449;-78
2022/10/19 06:07:41;;;;;;;4.20;1.60;;;11.10;99.90;;;;;;5074419;28;20834;-77
2022/10/19 06:10:09;;;;;;;5.67;1.37;;;10.80;99.90;;;;;;5073767;28;20476;-77
2022/10/19 06:12:36;;;;;;;2.37;1.77;;;11.60;99.90;;;;;;5075314;28;20459;-77
2022/10/19 06:15:02;;;;;;;7.90;1.63;;;11.60;99.90;;;;;;5078998;28;20453;-77
2022/10/19 06:17:30;;;;;;;1.43;1.23;;;11.80;99.90;;;;;;5077572;28;20424;-77
2022/10/19 06:19:57;;;;;;;3.33;1.70;;;;;;;;;;5074242;28;20537;-77
2022/10/19 06:22:24;;;;;;;8.23;1.73;;;11.30;99.90;;;;;;5074008;28;20416;-77
2022/10/19 06:24:51;;;;;;;6.03;1.77;;;11.70;99.90;;;;;;5074672;28;20446;-76
2022/10/19 06:27:17;;;;;;;4.67;2.13;;;11.80;99.90;;;;;;5074145;28;20441;-77
2022/10/19 06:29:44;;;;;;;2.30;1.73;;;11.90;99.90;;;;;;5074322;28;20480;-76
2022/10/19 06:32:11;;;;;;;11.47;1.70;;;12.00;99.90;;;;;;5075153;28;20458;-76
2022/10/19 06:34:39;;;;;;;9.33;2.77;;;11.80;99.90;;;;;;5075407;28;20449;-76
2022/10/19 06:37:05;;;;;;;3.77;1.40;;;11.70;99.90;;;;;;5075329;28;20453;-76
2022/10/19 06:39:32;;;;;;;8.50;2.50;;;12.20;99.90;;;;;;5074483;28;20475;-76
2022/10/19 06:41:59;;;;;;;4.80;1.70;;;11.70;99.90;;;;;;5073705;28;20452;-77
2022/10/19 06:44:26;;;;;;;3.70;1.90;;;12.20;99.90;;;;;;5074289;28;20452;-77
2022/10/19 06:46:52;;;;;;;4.10;1.73;;;11.80;99.90;;;;;;5073756;28;20457;-77
2022/10/19 06:49:19;;;;;;;4.10;1.97;;;12.40;99.90;;;;;;5074083;28;20501;-77
2022/10/19 06:51:47;;;;;;;6.40;1.67;;;12.10;99.90;;;;;;5073336;28;20451;-77
2022/10/19 06:54:14;;;;;;;9.53;1.70;;;12.50;99.90;;;;;;5074328;28;20424;-77
2022/10/19 06:56:41;;;;;;;7.60;1.70;;;11.90;99.90;;;;;;5073930;28;20939;-77
2022/10/19 06:59:07;;;;;;;5.73;2.20;;;11.90;99.90;;;;;;5073508;28;20448;-77
2022/10/19 07:01:34;;;;;;;6.50;3.03;;;11.80;99.90;;;;;;5073950;28;20445;-77
2022/10/19 07:04:01;;;;;;;3.83;1.40;;;12.50;99.90;;;;;;5073556;28;20857;-77
2022/10/19 07:06:28;;;;;;;3.80;1.73;;;12.50;99.90;;;;;;5073098;28;20452;-77
2022/10/19 07:08:56;;;;;;;5.67;2.30;;;11.80;99.90;;;;;;5073456;28;20449;-77
2022/10/19 07:11:23;;;;;;;6.13;1.70;;;12.20;99.90;;;;;;5073508;28;20490;-78
2022/10/19 07:13:51;;;;;;;7.77;2.37;;;11.90;99.90;;;;;;5073842;28;20420;-77
2022/10/19 07:16:18;;;;;;;2.30;1.97;;;12.30;99.90;;;;;;5073368;28;20426;-78
2022/10/19 07:18:45;;;;;;;5.37;1.60;;;12.10;99.90;;;;;;5073527;28;20452;-77
2022/10/19 07:21:14;;;;;;;5.10;1.93;;;12.00;99.90;;;;;;5072882;28;20986;-77
2022/10/19 07:23:42;;;;;;;7.53;2.70;;;12.40;99.90;;;;;;5073711;28;20444;-77
2022/10/19 07:26:13;;;;;;;4.77;2.80;;;12.90;99.90;;;;;;5073726;28;20438;-77
2022/10/19 07:28:42;;;;;;;4.00;1.93;;;12.30;99.90;;;;;;5073702;28;20443;-77
2022/10/19 07:31:10;;;;;;;3.57;1.70;;;12.70;99.90;;;;;;5073495;28;20540;-77
2022/10/19 07:33:37;;;;;;;9.60;2.10;;;12.60;99.90;;;;;;5073563;28;20481;-77
2022/10/19 07:36:07;;;;;;;3.00;1.87;;;12.40;99.90;;;;;;5073392;28;20448;-77
2022/10/19 07:38:34;;;;;;;2.60;1.80;;;12.40;99.90;;;;;;5072720;28;20427;-77
2022/10/19 07:41:03;;;;;;;5.03;1.73;;;12.40;99.90;;;;;;5072777;28;20838;-76
2022/10/19 07:43:31;;;;;;;2.57;2.13;;;12.50;99.90;;;;;;5073364;28;20445;-77
2022/10/19 07:45:59;;;;;;;3.20;1.63;;;12.50;99.90;;;;;;5073519;28;20415;-76
2022/10/19 07:48:25;;;;;;;5.03;2.50;;;12.70;99.90;;;;;;5074915;28;20430;-77
2022/10/19 07:50:52;;;;;;;5.27;2.17;;;12.70;99.90;;;;;;5077450;28;20468;-77
2022/10/19 07:53:19;;;;;;;6.27;2.37;;;12.80;99.90;;;;;;5076725;28;20512;-77
2022/10/19 07:55:46;;;;;;;2.57;2.03;;;12.60;99.90;;;;;;5073521;28;20502;-78
2022/10/19 07:58:12;;;;;;;4.93;2.00;;;12.60;99.90;;;;;;5073696;28;20448;-77
2022/10/19 08:00:41;;;;;;;2.63;1.43;;;12.40;99.90;;;;;;5074082;28;20480;-76
2022/10/19 08:03:08;;;;;;;2.37;1.43;;;;;;;;;;5077213;28;20444;-77
2022/10/19 08:05:35;;;;;;;3.83;1.70;;;12.30;99.90;;;;;;5079572;28;20451;-77
2022/10/19 08:08:02;;;;;;;3.97;1.60;;;12.20;99.90;;;;;;5078611;28;20536;-76
2022/10/19 08:10:29;;;;;;;2.97;0.93;;;12.80;99.90;;;;;;5077819;28;20465;-77
2022/10/19 08:12:56;;;;;;;1.43;1.30;;;;;;;;;;5076943;28;20484;-77
2022/10/19 08:15:24;;;;;;;2.07;1.67;;;12.70;99.90;;;;;;5076945;28;20982;-77
2022/10/19 08:17:52;;;;;;;2.87;2.07;;;12.50;99.90;;;;;;5076560;28;20490;-77
2022/10/19 08:20:19;;;;;;;3.57;1.67;;;12.40;99.90;;;;;;5076554;28;20439;-77
2022/10/19 08:22:46;;;;;;;3.20;1.53;;;12.30;99.90;;;;;;5076434;28;20885;-77
2022/10/19 08:25:13;;;;;;;5.33;1.70;;;;;;;;;;5077340;28;20448;-77
2022/10/19 08:27:40;;;;;;;3.00;1.43;;;12.20;99.90;;;;;;5076424;28;20445;-77
2022/10/19 08:30:08;;;;;;;3.63;1.27;;;11.70;99.90;;;;;;5078141;28;20473;-78
2022/10/19 08:32:35;;;;;;;2.63;1.50;;;;;;;;;;5076348;28;20472;-77
2022/10/19 08:35:03;;;;;;;8.53;2.47;;;11.70;99.90;;;;;;5076707;28;20448;-77
2022/10/19 08:37:30;;;;;;;3.33;1.70;;;11.80;99.90;;;;;;5076233;28;20456;-77
2022/10/19 08:39:56;;;;;;;3.00;1.87;;;12.30;99.90;;;;;;5076232;28;20890;-77
2022/10/19 08:42:28;;;;;;;3.73;1.73;;;12.00;99.90;;;;;;5076059;28;20415;-77
2022/10/19 08:45:30;;;;;;;9.23;2.33;;;11.70;99.90;;;;;;5076338;28;20411;-77
2022/10/19 08:48:15;;;;;;;11.07;6.17;;;12.00;99.90;;;;;;5072227;28;20453;-77
2022/10/19 08:50:45;;;;;;;3.10;2.40;;;12.00;99.90;;;;;;5076463;28;20465;-77
2022/10/19 08:53:16;;;;;;;1.90;1.60;;;12.30;99.90;;;;;;5075917;28;20481;-77
2022/10/19 08:55:54;;;;;;;6.73;1.37;;;12.70;99.90;;;;;;5075891;28;20453;-76
2022/10/19 08:58:33;;;;;;;4.03;1.50;;;12.50;99.90;;;;;;5075805;28;20433;-76
2022/10/19 09:01:06;;;;;;;5.13;1.50;;;12.70;99.90;;;;;;5104554;22;20570;-82
2022/10/19 09:03:40;;;;;;;3.10;1.67;;;12.00;99.90;;;;;;5101674;28;20425;-80
2022/10/19 09:06:19;;;;;;;2.47;1.43;;;12.20;99.90;;;;;;5099078;28;20439;-80
2022/10/19 09:08:46;;;;;;;3.57;2.07;;;12.30;99.90;;;;;;5098550;28;20394;-80
2022/10/19 09:11:17;;;;;;;1.70;1.60;;;12.60;99.90;;;;;;5098273;28;20459;-81
2022/10/19 09:13:47;;;;;;;2.70;1.80;;;13.10;99.90;;;;;;5098650;28;20468;-80
2022/10/19 09:16:16;;;;;;;2.57;1.73;;;12.60;99.90;;;;;;5102775;28;20920;-81
2022/10/19 09:18:45;;;;;;;2.37;1.40;;;12.30;99.90;;;;;;5099770;28;20470;-80
2022/10/19 09:21:17;;;;;;;2.17;1.97;;;12.70;99.90;;;;;;5097899;28;20442;-81
2022/10/19 09:23:51;;;;;;;6.97;2.40;;;13.30;99.90;;;;;;5098214;28;20542;-80
2022/10/19 09:26:20;;;;;;;4.57;2.40;;;13.00;99.90;;;;;;5097522;28;20424;-80
2022/10/19 09:28:52;;;;;;;8.70;2.20;;;13.30;99.90;;;;;;5097620;28;20823;-81
2022/10/19 09:31:25;;;;;;;3.87;1.60;;;12.90;99.90;;;;;;5098220;28;20472;-81
2022/10/19 09:33:57;;;;;;;2.17;1.77;;;13.40;99.90;;;;;;5097669;28;20463;-80
2022/10/19 09:36:34;;;;;;;5.20;2.43;;;12.80;99.90;;;;;;5097662;28;20477;-81
2022/10/19 09:39:01;;;;;;;2.00;1.37;;;13.60;99.90;;;;;;5101514;28;20448;-80
2022/10/19 09:41:28;;;;;;;2.17;1.97;;;13.60;99.90;;;;;;5097826;28;20475;-81
2022/10/19 09:43:55;;;;;;;2.10;1.10;;;13.60;99.90;;;;;;5097901;28;20440;-80
2022/10/19 09:46:43;;;;;;;2.67;2.47;;;13.50;99.90;;;;;;5099335;28;20447;-77
2022/10/19 09:49:10;;;;;;;4.57;1.60;;;13.00;99.90;;;;;;5102507;28;20407;-79
2022/10/19 09:51:50;;;;;;;2.70;1.23;;;13.50;99.90;;;;;;5101483;28;20587;-78
2022/10/19 09:54:26;;;;;;;3.60;1.50;;;13.10;99.90;;;;;;5103755;28;20471;-79
2022/10/19 09:56:56;;;;;;;1.83;1.70;;;13.90;99.90;;;;;;5106691;28;20427;-82
2022/10/19 09:59:25;;;;;;;3.37;1.50;;;13.10;99.90;;;;;;5098264;28;20440;-82
2022/10/19 10:02:04;;;;;;;4.00;1.50;;;12.80;99.90;;;;;;5108430;28;20462;-79
2022/10/19 10:04:30;;;;;;;1.90;1.10;;;13.00;99.90;;;;;;5117369;28;20425;-80
2022/10/19 10:06:59;;;;;;;1.57;1.27;;;12.90;1.00;;;;;;5118088;28;20448;-80
2022/10/19 10:09:28;;;;;;;2.60;1.47;;;13.00;99.90;;;;;;5102265;28;20446;-81
2022/10/19 10:11:58;;;;;;;1.27;1.17;;;13.60;66.70;;;;;;5098811;28;20505;-81
2022/10/19 10:14:28;;;;;;;1.43;1.07;;;13.10;99.90;;;;;;5098470;28;20476;-81
2022/10/19 10:16:56;;;;;;;3.90;1.20;;;13.70;99.90;;;;;;5099164;28;20440;-80
2022/10/19 10:19:27;;;;;;;2.07;1.10;;;13.00;99.90;;;;;;5100955;28;20505;-80
2022/10/19 10:21:55;;;;;;;3.80;1.63;;;13.40;99.90;;;;;;5104202;28;20421;-79
2022/10/19 10:24:25;;;;;;;10.80;8.23;;;13.10;99.90;;;;;;5103222;28;20448;-81
2022/10/19 10:26:54;;;;;;;2.70;1.20;;;13.30;99.90;;;;;;5104673;28;20435;-80
2022/10/19 10:29:23;;;;;;;4.30;1.33;;;13.10;1.00;;;;;;5099914;28;20443;-81
2022/10/19 10:31:53;;;;;;;2.17;1.13;;;13.50;99.90;;;;;;5099212;28;20491;-81
2022/10/19 10:34:30;;;;;;;2.73;2.50;;;13.00;99.90;;;;;;5097751;28;20464;-81
2022/10/19 10:36:58;;;;;;;3.90;1.43;;;12.70;99.90;;;;;;5097639;28;20424;-81
2022/10/19 10:39:27;;;;;;;5.17;2.07;;;13.50;1.00;;;;;;5104457;28;20443;-78
2022/10/19 10:41:55;;;;;;;3.00;1.10;;;13.50;1.00;;;;;;5101306;28;20951;-80
2022/10/19 10:44:25;;;;;;;6.93;1.43;;;12.60;99.90;;;;;;5099016;28;20441;-81
2022/10/19 10:46:55;;;;;;;2.20;1.17;;;13.50;1.00;;;;;;5097975;28;20445;-81
2022/10/19 10:49:25;;;;;;;1.80;1.60;;;13.40;1.00;;;;;;5097607;28;20849;-78
2022/10/19 10:51:55;;;;;;;1.50;1.20;;;13.30;1.00;;;;;;5100339;28;20774;-80
2022/10/19 10:54:23;;;;;;;1.03;0.90;;;13.20;1.00;;;;;;5103295;28;20483;-78
2022/10/19 10:57:15;;;;;;;1.30;1.17;;;13.30;78.40;;;;;;5097728;28;20455;-80
2022/10/19 10:59:53;;;;;;;5.30;1.23;;;13.40;1.00;;;;;;5096378;28;20941;-82
2022/10/19 11:02:31;;;;;;;2.90;0.80;;;13.20;99.90;;;;;;5097538;28;20880;-80
2022/10/19 11:05:02;;;;;;;2.77;1.27;;;13.20;99.90;;;;;;5097454;28;20403;-82
2022/10/19 11:07:32;;;;;;;2.30;1.00;;;13.30;99.90;;;;;;5098832;28;20413;-82
2022/10/19 11:10:05;;;;;;;1.53;1.27;;;14.00;1.00;;;;;;5098823;28;20442;-82
2022/10/19 11:12:37;;;;;;;2.57;1.20;;;13.70;50.50;;;;;;5100081;28;20439;-81
2022/10/19 11:15:12;;;;;;;1.13;0.90;;;13.60;99.90;;;;;;5098779;28;20421;-82
2022/10/19 11:17:48;;;;;;;1.50;1.27;;;13.60;1.00;;;;;;5098393;28;20432;-81
2022/10/19 11:20:16;;;;;;;2.50;1.17;;;13.20;99.90;;;;;;5100357;28;20467;-79
2022/10/19 11:22:49;;;;;;;3.47;1.00;;;13.50;12.30;;;;;;5103383;28;20482;-81
2022/10/19 11:25:26;;;;;;;2.80;1.03;;;13.60;1.00;;;;;;5097679;28;20432;-81
2022/10/19 11:28:06;;;;;;;1.13;0.93;;;14.10;1.00;;;;;;5097013;28;20427;-81
2022/10/19 11:30:37;;;;;;;3.83;1.10;;;14.00;1.00;;;;;;5097722;28;20471;-81
2022/10/19 11:33:10;;;;;;;2.93;1.57;;;14.40;1.00;;;;;;5097079;28;20468;-81
2022/10/19 11:35:45;;;;;;;5.93;1.50;;;14.00;99.90;;;;;;5096706;28;20407;-81
2022/10/19 11:38:34;;;;;;;3.87;1.97;;;14.50;99.90;;;;;;5098092;28;20436;-80
2022/10/19 11:41:14;;;;;;;2.23;0.90;;;14.50;99.90;;;;;;5100559;28;21024;-81
2022/10/19 11:43:56;;;;;;;1.33;0.90;;;14.60;1.00;;;;;;5100454;28;20436;-80
2022/10/19 11:46:28;;;;;;;3.80;1.40;;;14.50;1.00;;;;;;5100579;28;20435;-80
2022/10/19 11:49:10;;;;;;;2.17;1.10;;;14.20;1.00;;;;;;5100730;28;20486;-81
2022/10/19 11:51:41;;;;;;;2.90;1.10;;;13.60;1.00;;;;;;5102396;28;20472;-80
2022/10/19 11:54:22;;;;;;;3.83;1.00;;;14.10;99.90;;;;;;5100262;28;20472;-81
2022/10/19 11:56:53;;;;;;;1.87;1.10;;;14.60;99.90;;;;;;5101531;28;20408;-82
2022/10/19 11:59:31;;;;;;;0.83;0.80;;;14.20;99.90;;;;;;5100189;28;20817;-81
2022/10/19 12:02:10;;;;;;;1.20;0.80;;;14.50;1.00;;;;;;5100027;28;20455;-81
2022/10/19 12:04:47;;;;;;;3.80;1.10;;;14.30;99.90;;;;;;5099975;28;20544;-81
2022/10/19 12:07:31;;;;;;;1.20;1.00;;;14.90;99.90;;;;;;5101402;28;20793;-81
2022/10/19 12:10:07;;;;;;;1.47;1.10;;;14.70;1.00;;;;;;5100918;28;20520;-82
2022/10/19 12:12:36;;;;;;;1.10;0.80;;;14.20;99.90;;;;;;5100592;28;20432;-82
2022/10/19 12:15:22;;;;;;;2.70;1.20;;;14.60;99.90;;;;;;5100575;28;20508;-81
2022/10/19 12:17:51;;;;;;;1.20;0.90;;;14.10;99.90;;;;;;5100350;28;20475;-81
2022/10/19 12:20:25;;;;;;;1.40;1.00;;;14.30;99.90;;;;;;5099607;28;20463;-81
2022/10/19 12:22:52;;;;;;;2.00;1.07;;;;;;;;;;5099307;28;20432;-81
2022/10/19 12:25:19;;;;;;;4.50;1.03;;;14.60;99.90;;;;;;5101183;28;20422;-81
2022/10/19 12:27:48;;;;;;;1.40;1.10;;;14.10;1.00;;;;;;5105327;28;20444;-79
2022/10/19 12:30:18;;;;;;;2.00;1.03;;;14.10;99.90;;;;;;5104027;28;20463;-78
2022/10/19 12:32:56;;;;;;;1.87;1.00;;;14.50;99.90;;;;;;5103400;28;20509;-79
2022/10/19 12:35:35;;;;;;;1.30;1.20;;;14.50;99.90;;;;;;5099893;28;20486;-80
2022/10/19 12:38:06;;;;;;;1.67;0.90;;;14.70;99.90;;;;;;5099594;28;20932;-82
2022/10/19 12:40:39;;;;;;;1.53;1.40;;;14.60;99.90;;;;;;5100636;28;20475;-81
2022/10/19 12:43:13;;;;;;;1.10;1.00;;;14.20;8.10;;;;;;5102131;28;20505;-80
2022/10/19 12:45:47;;;;;;;1.10;0.80;;;14.20;99.90;;;;;;5101362;28;20957;-80
2022/10/19 12:48:19;;;;;;;5.20;1.60;;;14.30;99.90;;;;;;5099551;28;20436;-80
2022/10/19 12:51:01;;;;;;;1.87;1.37;;;13.60;99.90;;;;;;5099161;28;20467;-82
2022/10/19 12:53:31;;;;;;;3.70;1.60;;;14.00;70.00;;;;;;5099277;28;20661;-81
2022/10/19 12:56:01;;;;;;;2.30;1.50;;;13.90;99.90;;;;;;5099389;28;20448;-82
2022/10/19 12:58:34;;;;;;;1.50;1.30;;;14.50;99.90;;;;;;5099506;28;20454;-80
2022/10/19 13:01:04;;;;;;;2.07;1.23;;;14.20;99.90;;;;;;5098462;28;20476;-80
2022/10/19 13:03:34;;;;;;;2.60;1.00;;;14.00;99.90;;;;;;5099325;28;20478;-82
2022/10/19 13:06:10;;;;;;;3.83;1.10;;;14.90;99.90;;;;;;5098897;28;20448;-80